Munich, Germany
Current Conditions -  °F | °C
As of 5:20 AM on Friday 19 Dec 2014 (Local Time) from EDDM Reporting Station
Scattered Clouds Scattered Clouds  
Wind Chill: 41°   Ceiling: Unl
Heat Index: 48°   Visibility: 6mi
Dew Point: 43°   Wind: 20mph
Humidity: 82%   Direction: 250°WSW
Pressure: 30.12"   Gusts: NA
Location:  48.14°N, 11.58°E
Report Text: EDDM 190420Z 25017KT 9999 SCT028 09/06 Q1020 NOSIG
Loading
Personal Weather Stations






























Interactive Weather Map New forecast layout! Learn more

10-Day Weather Forecast

Advertisements
Track Severe Weather on mobile